createdAt,value
2022-12-31T00:01:04.302Z,130.27
2022-12-31T00:02:26.213Z,126.43
2022-12-31T00:03:48.209Z,134.73
2022-12-31T00:05:10.361Z,143.18
2022-12-31T00:06:36.423Z,159.93
2022-12-31T00:07:59.174Z,157.70
2022-12-31T00:09:21.258Z,141.60
2022-12-31T00:10:43.061Z,129.23
2022-12-31T00:12:05.218Z,111.88
2022-12-31T00:13:26.772Z,101.10
2022-12-31T00:14:48.949Z,99.15
2022-12-31T00:16:13.602Z,95.95
2022-12-31T00:17:35.188Z,101.20
2022-12-31T00:19:01.930Z,95.03
2022-12-31T00:20:23.651Z,96.45
2022-12-31T00:21:45.415Z,96.07
2022-12-31T00:23:07.994Z,96.82
2022-12-31T00:24:31.166Z,99.63
2022-12-31T00:25:53.270Z,95.97
2022-12-31T00:27:15.100Z,95.53
2022-12-31T00:28:37.889Z,96.97
2022-12-31T00:30:04.217Z,96.82
2022-12-31T00:31:31.830Z,101.32
2022-12-31T00:32:53.857Z,101.18
2022-12-31T00:34:15.400Z,98.07
2022-12-31T00:35:36.980Z,101.90
2022-12-31T00:37:01.938Z,104.63
2022-12-31T00:38:23.686Z,105.25
2022-12-31T00:39:45.406Z,107.25
2022-12-31T00:41:08.886Z,111.40
2022-12-31T00:42:30.954Z,110.03
2022-12-31T00:43:53.081Z,109.40
2022-12-31T00:45:14.789Z,108.57
2022-12-31T00:47:57.214Z,146.25
2022-12-31T00:49:19.085Z,148.20
2022-12-31T00:50:40.744Z,130.13
2022-12-31T00:52:02.684Z,134.85
2022-12-31T00:53:25.446Z,105.38
2022-12-31T00:54:47.167Z,101.60
2022-12-31T00:56:14.640Z,112.68
2022-12-31T00:57:36.396Z,106.45
2022-12-31T00:58:59.506Z,112.45
2022-12-31T01:00:21.173Z,109.15
2022-12-31T01:01:43.685Z,106.35
2022-12-31T01:03:06.114Z,108.15
2022-12-31T01:04:27.998Z,105.55
2022-12-31T01:05:50.457Z,100.38
2022-12-31T01:07:12.463Z,104.00
2022-12-31T01:08:34.616Z,100.82
2022-12-31T01:09:56.390Z,101.10
2022-12-31T01:11:19.193Z,103.85
2022-12-31T01:12:41.199Z,107.65
2022-12-31T01:14:06.094Z,99.88
2022-12-31T01:15:28.101Z,92.80
2022-12-31T01:16:55.288Z,95.85
2022-12-31T01:18:17.167Z,88.68
2022-12-31T01:19:39.113Z,91.80
2022-12-31T01:21:04.070Z,90.03
2022-12-31T01:22:25.884Z,91.10
2022-12-31T01:23:48.401Z,96.85
2022-12-31T01:25:10.380Z,98.68
2022-12-31T01:26:32.533Z,97.63
2022-12-31T01:27:54.707Z,104.57
2022-12-31T01:29:17.036Z,104.80
2022-12-31T01:30:42.765Z,106.60
2022-12-31T01:32:05.384Z,105.20
2022-12-31T01:33:27.336Z,100.47
2022-12-31T01:34:49.141Z,99.55
2022-12-31T01:36:14.229Z,95.72
2022-12-31T01:37:35.943Z,93.57
2022-12-31T01:38:59.936Z,92.53
2022-12-31T01:40:21.502Z,90.38
2022-12-31T01:41:47.176Z,88.38
2022-12-31T01:43:20.219Z,88.20
2022-12-31T01:44:47.445Z,96.30
2022-12-31T01:46:11.593Z,89.75
2022-12-31T01:47:50.028Z,86.13
2022-12-31T01:49:17.513Z,84.93
2022-12-31T01:50:41.018Z,78.43
2022-12-31T01:52:27.325Z,78.50
2022-12-31T01:53:50.182Z,77.80
2022-12-31T01:55:30.463Z,77.78
2022-12-31T01:56:55.053Z,69.25
2022-12-31T01:58:31.431Z,61.65
2022-12-31T01:59:55.608Z,57.30
2022-12-31T02:01:28.116Z,60.70
2022-12-31T02:02:50.034Z,66.97
2022-12-31T02:04:13.733Z,66.47
2022-12-31T02:05:53.703Z,72.28
2022-12-31T02:07:15.564Z,73.68
2022-12-31T02:08:41.961Z,72.60
2022-12-31T02:10:04.325Z,84.68
2022-12-31T02:11:33.009Z,95.78
2022-12-31T02:12:55.431Z,100.45
2022-12-31T02:14:29.513Z,98.43
2022-12-31T02:16:15.998Z,61.58
2022-12-31T02:18:01.680Z,56.78
2022-12-31T02:19:32.716Z,49.67
2022-12-31T02:21:03.553Z,47.00
2022-12-31T02:22:25.209Z,41.10
2022-12-31T02:24:02.356Z,40.13
2022-12-31T02:26:01.296Z,58.60
2022-12-31T02:27:34.847Z,73.07
2022-12-31T02:29:10.860Z,65.50
2022-12-31T02:30:34.672Z,50.55
2022-12-31T02:32:22.580Z,42.92
2022-12-31T02:33:50.509Z,41.58
2022-12-31T02:35:14.723Z,43.38
2022-12-31T02:36:42.995Z,41.60
2022-12-31T02:38:30.131Z,44.00
2022-12-31T02:39:52.557Z,46.05
2022-12-31T02:41:36.207Z,45.03
2022-12-31T02:42:57.834Z,43.20
2022-12-31T02:44:33.178Z,44.75
2022-12-31T02:46:29.940Z,45.42
2022-12-31T02:48:24.873Z,45.22
2022-12-31T02:50:07.647Z,45.80
2022-12-31T02:51:47.791Z,45.65
2022-12-31T02:53:26.258Z,42.38
2022-12-31T02:55:10.183Z,41.78
2022-12-31T02:56:39.853Z,39.55
2022-12-31T03:00:06.428Z,37.53
2022-12-31T03:01:56.215Z,39.97
2022-12-31T03:03:19.909Z,41.63
2022-12-31T03:04:46.105Z,43.35
2022-12-31T03:06:09.787Z,44.90
2022-12-31T03:07:33.085Z,46.47
2022-12-31T03:09:13.144Z,47.42
2022-12-31T03:10:35.612Z,47.05
2022-12-31T03:12:15.859Z,47.20
2022-12-31T03:13:37.360Z,47.50
2022-12-31T03:15:00.153Z,48.08
2022-12-31T03:16:21.971Z,48.70
2022-12-31T03:17:43.735Z,48.88
2022-12-31T03:19:25.820Z,49.95
2022-12-31T03:21:10.138Z,47.97
2022-12-31T03:22:32.815Z,52.30
2022-12-31T03:24:13.170Z,72.88
2022-12-31T03:25:35.756Z,58.25
2022-12-31T03:26:57.543Z,55.97
2022-12-31T03:28:21.977Z,58.85
2022-12-31T03:29:43.779Z,54.63
2022-12-31T03:31:06.585Z,59.88
2022-12-31T03:32:28.224Z,61.75
2022-12-31T03:33:50.248Z,74.20
2022-12-31T03:35:14.073Z,64.50
2022-12-31T03:36:36.053Z,60.33
2022-12-31T03:37:57.969Z,52.92
2022-12-31T03:39:19.762Z,53.17
2022-12-31T03:40:45.095Z,147.30
2022-12-31T03:42:06.891Z,98.10
2022-12-31T03:43:28.851Z,66.72
2022-12-31T03:44:50.524Z,63.63
2022-12-31T03:46:12.319Z,75.50
2022-12-31T03:47:34.907Z,73.78
2022-12-31T03:48:56.380Z,71.80
2022-12-31T03:50:19.385Z,69.47
2022-12-31T03:51:40.904Z,64.43
2022-12-31T03:53:02.918Z,56.10
2022-12-31T03:54:24.667Z,52.67
2022-12-31T03:55:54.084Z,50.30
2022-12-31T03:57:15.917Z,50.28
2022-12-31T03:58:37.930Z,52.10
2022-12-31T03:59:59.825Z,55.00
2022-12-31T04:01:24.332Z,54.30
2022-12-31T04:02:47.560Z,55.33
2022-12-31T04:04:09.541Z,62.58
2022-12-31T04:05:32.425Z,64.85
2022-12-31T04:06:54.346Z,67.65
2022-12-31T04:08:16.133Z,64.68
2022-12-31T04:09:37.921Z,66.85
2022-12-31T04:10:59.976Z,64.15
2022-12-31T04:12:22.004Z,63.15
2022-12-31T04:13:44.093Z,63.40
2022-12-31T04:15:07.642Z,58.60
2022-12-31T04:16:29.698Z,57.33
2022-12-31T04:17:51.725Z,54.17
2022-12-31T04:19:14.649Z,58.88
2022-12-31T04:20:36.585Z,56.97
2022-12-31T04:21:59.103Z,64.50
2022-12-31T04:23:20.815Z,68.28
2022-12-31T04:24:43.649Z,66.28
2022-12-31T04:26:05.471Z,65.80
2022-12-31T04:27:27.413Z,66.70
2022-12-31T04:28:49.384Z,69.63
2022-12-31T04:30:13.124Z,66.97
2022-12-31T04:31:35.187Z,64.70
2022-12-31T04:32:57.285Z,64.07
2022-12-31T04:34:19.166Z,70.07
2022-12-31T04:35:40.988Z,71.90
2022-12-31T04:37:03.534Z,69.00
2022-12-31T04:38:25.370Z,69.57
2022-12-31T04:39:47.118Z,73.97
2022-12-31T04:41:18.480Z,76.93
2022-12-31T04:42:40.105Z,80.70
2022-12-31T04:44:01.901Z,81.70
2022-12-31T04:45:23.909Z,85.40
2022-12-31T04:46:45.787Z,84.30
2022-12-31T04:48:07.496Z,87.60
2022-12-31T04:49:29.449Z,95.70
2022-12-31T04:50:51.586Z,96.75
2022-12-31T04:52:13.329Z,104.45
2022-12-31T04:53:35.138Z,104.20
2022-12-31T04:54:56.782Z,107.15
2022-12-31T04:56:20.530Z,112.95
2022-12-31T04:57:42.417Z,109.95
2022-12-31T04:59:05.576Z,120.28
2022-12-31T05:00:27.294Z,134.07
2022-12-31T05:01:49.507Z,126.95
2022-12-31T05:03:12.205Z,116.97
2022-12-31T05:04:34.184Z,92.72
2022-12-31T05:06:08.204Z,81.78
2022-12-31T05:07:30.199Z,84.75
2022-12-31T05:08:52.281Z,77.15
2022-12-31T05:10:14.052Z,88.95
2022-12-31T05:11:35.879Z,265.27
2022-12-31T05:12:57.658Z,138.32
2022-12-31T05:14:20.099Z,89.30
2022-12-31T05:15:42.675Z,85.35
2022-12-31T05:17:04.314Z,91.10
2022-12-31T05:18:26.112Z,79.05
2022-12-31T05:19:47.917Z,75.88
2022-12-31T05:21:15.764Z,77.68
2022-12-31T05:22:37.839Z,73.25
2022-12-31T05:23:59.677Z,66.55
2022-12-31T05:25:21.469Z,63.85
2022-12-31T05:26:43.429Z,58.03
2022-12-31T05:28:05.445Z,63.97
2022-12-31T05:29:27.370Z,64.57
2022-12-31T05:30:51.367Z,66.32
2022-12-31T05:32:13.107Z,67.15
2022-12-31T05:33:34.917Z,90.65
2022-12-31T05:34:57.928Z,83.57
2022-12-31T05:36:19.732Z,74.47
2022-12-31T05:37:41.998Z,73.78
2022-12-31T05:39:04.101Z,69.57
2022-12-31T05:40:26.294Z,80.88
2022-12-31T05:41:48.341Z,104.13
2022-12-31T05:43:10.097Z,115.22
2022-12-31T05:44:31.660Z,105.40
2022-12-31T05:45:54.159Z,96.78
2022-12-31T05:47:17.072Z,96.80
2022-12-31T05:48:39.179Z,97.53
2022-12-31T05:50:00.685Z,99.18
2022-12-31T05:51:22.356Z,87.03
2022-12-31T05:52:47.708Z,77.95
2022-12-31T05:54:09.949Z,68.97
2022-12-31T05:55:31.728Z,69.05
2022-12-31T05:56:53.570Z,68.88
2022-12-31T05:58:16.872Z,71.35
2022-12-31T05:59:38.456Z,71.55
2022-12-31T06:01:00.448Z,73.45
2022-12-31T06:02:23.010Z,75.38
2022-12-31T06:03:44.919Z,82.03
2022-12-31T06:05:07.398Z,92.00
2022-12-31T06:06:29.043Z,90.00
2022-12-31T06:07:50.680Z,94.53
2022-12-31T06:09:12.672Z,100.50
2022-12-31T06:10:34.637Z,128.52
2022-12-31T06:11:56.420Z,135.32
2022-12-31T06:13:18.290Z,128.93
2022-12-31T06:14:45.436Z,127.10
2022-12-31T06:16:09.394Z,123.60
2022-12-31T06:17:32.530Z,122.80
2022-12-31T06:18:54.936Z,115.10
2022-12-31T06:20:17.846Z,111.32
2022-12-31T06:21:39.613Z,103.45
2022-12-31T06:23:02.576Z,105.95
2022-12-31T06:24:24.654Z,110.10
2022-12-31T06:25:46.152Z,116.20
2022-12-31T06:27:08.138Z,122.90
2022-12-31T06:28:29.933Z,121.25
2022-12-31T06:29:51.902Z,127.30
2022-12-31T06:31:15.100Z,126.72
2022-12-31T06:32:36.898Z,135.27
2022-12-31T06:33:59.162Z,130.32
2022-12-31T06:35:21.060Z,127.47
2022-12-31T06:36:42.548Z,132.20
2022-12-31T06:38:04.280Z,129.88
2022-12-31T06:39:26.412Z,120.63
2022-12-31T06:40:48.222Z,117.50
2022-12-31T06:42:10.009Z,123.97
2022-12-31T06:43:34.138Z,130.45
2022-12-31T06:44:56.157Z,133.93
2022-12-31T06:46:18.853Z,132.80
2022-12-31T06:47:40.988Z,132.02
2022-12-31T06:49:03.131Z,133.30
2022-12-31T06:50:25.123Z,140.00
2022-12-31T06:51:48.796Z,163.73
2022-12-31T06:53:10.380Z,166.00
2022-12-31T06:54:32.509Z,175.50
2022-12-31T06:55:54.937Z,177.20
2022-12-31T06:57:17.181Z,204.48
2022-12-31T06:58:39.438Z,196.65
2022-12-31T07:00:01.613Z,200.00
2022-12-31T07:02:03.807Z,224.00
2022-12-31T07:03:40.949Z,237.98
2022-12-31T07:05:12.487Z,227.20
2022-12-31T07:06:38.153Z,240.25
2022-12-31T07:08:15.794Z,245.05
2022-12-31T07:09:55.424Z,271.33
2022-12-31T07:11:30.343Z,218.68
2022-12-31T07:13:00.886Z,200.38
2022-12-31T07:14:28.372Z,160.82
2022-12-31T07:16:31.684Z,113.68
2022-12-31T07:18:17.690Z,68.30
2022-12-31T07:19:45.268Z,108.35
2022-12-31T07:21:16.450Z,110.20
2022-12-31T07:22:38.844Z,96.97
2022-12-31T07:24:01.195Z,105.30
2022-12-31T07:25:23.623Z,88.93
2022-12-31T07:27:19.364Z,84.53
2022-12-31T07:29:07.898Z,74.75
2022-12-31T07:30:40.719Z,63.30
2022-12-31T07:32:24.376Z,91.93
2022-12-31T07:33:58.152Z,99.70
2022-12-31T07:35:38.066Z,112.55
2022-12-31T07:37:23.351Z,118.80
2022-12-31T07:39:08.707Z,89.35
2022-12-31T07:40:35.289Z,93.35
2022-12-31T07:42:33.079Z,110.03
2022-12-31T07:44:15.206Z,87.57
2022-12-31T07:45:58.248Z,71.35
2022-12-31T07:47:24.365Z,63.97
2022-12-31T07:48:46.733Z,60.83
2022-12-31T07:50:16.174Z,59.20
2022-12-31T07:51:38.169Z,75.78
2022-12-31T07:53:00.360Z,92.82
2022-12-31T07:54:22.522Z,77.53
2022-12-31T07:55:44.607Z,72.82
2022-12-31T07:57:06.532Z,69.10
2022-12-31T07:58:40.614Z,70.25
2022-12-31T08:00:14.185Z,89.55
2022-12-31T08:01:47.176Z,67.50
2022-12-31T08:03:30.677Z,96.22
2022-12-31T08:05:16.627Z,66.43
2022-12-31T08:06:50.775Z,66.85
2022-12-31T08:08:12.418Z,55.75
2022-12-31T08:09:42.919Z,46.17
2022-12-31T08:11:18.570Z,43.63
2022-12-31T08:12:41.317Z,42.13
2022-12-31T08:14:03.916Z,79.03
2022-12-31T08:15:30.364Z,80.75
2022-12-31T08:16:53.053Z,56.03
2022-12-31T08:18:14.720Z,47.08
2022-12-31T08:19:36.494Z,59.78
2022-12-31T08:21:17.932Z,60.72
2022-12-31T08:23:07.953Z,133.18
2022-12-31T08:24:35.898Z,235.13
2022-12-31T08:26:33.204Z,68.50
2022-12-31T08:28:48.571Z,67.38
2022-12-31T08:30:12.990Z,89.53
2022-12-31T08:32:03.529Z,75.70
2022-12-31T08:34:05.773Z,55.33
2022-12-31T08:35:56.376Z,73.63
2022-12-31T08:37:40.956Z,48.13
2022-12-31T08:39:28.487Z,96.30
2022-12-31T08:41:08.750Z,41.83
2022-12-31T08:42:49.027Z,43.25
2022-12-31T08:44:39.197Z,52.20
2022-12-31T08:46:01.703Z,55.40
2022-12-31T08:47:38.716Z,53.53
2022-12-31T08:49:00.998Z,54.35
2022-12-31T08:50:23.397Z,55.92
2022-12-31T08:51:45.565Z,54.00
2022-12-31T08:53:07.772Z,59.97
2022-12-31T08:54:30.124Z,55.97
2022-12-31T08:56:05.135Z,57.72
2022-12-31T08:57:42.291Z,63.22
2022-12-31T08:59:20.768Z,64.82
2022-12-31T09:00:42.798Z,71.80
2022-12-31T09:02:30.471Z,70.82
2022-12-31T09:04:02.831Z,70.25
2022-12-31T09:05:36.800Z,93.43
2022-12-31T09:07:03.959Z,86.57
2022-12-31T09:08:51.238Z,72.45
2022-12-31T09:10:33.041Z,104.88
2022-12-31T09:12:16.261Z,58.85
2022-12-31T09:14:10.152Z,183.40
2022-12-31T09:15:41.527Z,58.20
2022-12-31T09:17:21.637Z,75.57
2022-12-31T09:18:43.751Z,69.07
2022-12-31T09:20:07.007Z,78.72
2022-12-31T09:21:28.827Z,700.90
2022-12-31T09:22:51.788Z,149.18
2022-12-31T09:24:15.336Z,91.75
2022-12-31T09:26:07.881Z,183.65
2022-12-31T09:27:33.336Z,243.60
2022-12-31T09:29:07.027Z,312.58
2022-12-31T09:30:32.423Z,338.52
2022-12-31T09:32:08.154Z,274.40
2022-12-31T09:33:45.269Z,272.55
2022-12-31T09:35:37.187Z,222.85
2022-12-31T09:37:05.433Z,219.15
2022-12-31T09:38:45.192Z,166.23
2022-12-31T09:40:28.375Z,143.57
2022-12-31T09:42:08.333Z,134.88
2022-12-31T09:43:36.227Z,101.65
2022-12-31T09:45:35.584Z,138.27
2022-12-31T09:47:28.317Z,129.30
2022-12-31T09:49:07.315Z,113.85
2022-12-31T09:50:56.550Z,125.75
2022-12-31T09:52:24.245Z,75.72
2022-12-31T09:54:17.720Z,91.50
2022-12-31T09:55:51.499Z,104.20
2022-12-31T09:57:25.475Z,81.88
2022-12-31T09:59:11.061Z,72.30
2022-12-31T10:01:11.079Z,78.95
2022-12-31T10:04:14.607Z,68.75
2022-12-31T10:05:55.227Z,74.28
2022-12-31T10:07:58.508Z,75.65
2022-12-31T10:09:55.807Z,70.15
2022-12-31T10:11:26.810Z,63.17
2022-12-31T10:12:57.356Z,90.32
2022-12-31T10:14:34.177Z,74.50
2022-12-31T10:16:07.788Z,64.72
2022-12-31T10:18:08.554Z,68.13
2022-12-31T10:19:42.007Z,57.30
2022-12-31T10:21:24.917Z,62.40
2022-12-31T10:23:20.327Z,63.63
2022-12-31T10:25:06.352Z,62.95
2022-12-31T10:26:53.215Z,65.32
2022-12-31T10:28:38.033Z,67.72
2022-12-31T10:30:03.777Z,78.93
2022-12-31T10:31:53.878Z,81.38
2022-12-31T10:33:40.999Z,86.35
2022-12-31T10:35:15.355Z,75.88
2022-12-31T10:36:55.747Z,80.63
2022-12-31T10:38:47.821Z,76.10
2022-12-31T10:40:12.375Z,76.20
2022-12-31T10:41:56.705Z,62.10
2022-12-31T10:43:21.471Z,57.28
2022-12-31T10:45:06.192Z,61.22
2022-12-31T10:47:02.953Z,73.78
2022-12-31T10:48:33.400Z,54.38
2022-12-31T10:49:55.114Z,50.97
2022-12-31T10:51:23.594Z,54.13
2022-12-31T10:53:10.136Z,78.68
2022-12-31T10:54:31.740Z,60.28
2022-12-31T10:56:31.242Z,81.68
2022-12-31T10:58:07.925Z,61.75
2022-12-31T10:59:44.524Z,66.28
2022-12-31T11:01:24.429Z,52.53
2022-12-31T11:03:08.053Z,42.40
2022-12-31T11:04:50.864Z,38.33
2022-12-31T11:06:18.173Z,39.03
2022-12-31T11:07:55.705Z,38.05
2022-12-31T11:09:36.085Z,44.65
2022-12-31T11:11:23.441Z,44.55
2022-12-31T11:13:06.857Z,41.10
2022-12-31T11:14:56.698Z,43.20
2022-12-31T11:18:11.466Z,59.47
2022-12-31T11:19:53.506Z,76.90
2022-12-31T11:21:55.642Z,76.30
2022-12-31T11:23:37.111Z,66.05
2022-12-31T11:25:10.958Z,54.78
2022-12-31T11:26:51.220Z,88.82
2022-12-31T11:28:25.027Z,105.82
2022-12-31T11:29:49.985Z,48.67
2022-12-31T11:31:30.671Z,45.13
2022-12-31T11:32:58.479Z,48.50
2022-12-31T11:34:26.631Z,160.75
2022-12-31T11:36:08.339Z,67.20
2022-12-31T11:37:40.585Z,72.53
2022-12-31T11:39:39.967Z,68.15
2022-12-31T11:41:11.704Z,64.90
2022-12-31T11:43:08.703Z,52.90
2022-12-31T11:44:58.228Z,51.50
2022-12-31T11:46:52.631Z,47.45
2022-12-31T11:48:30.135Z,60.88
2022-12-31T11:50:30.442Z,43.38
2022-12-31T11:52:21.769Z,86.22
2022-12-31T11:54:28.724Z,60.08
2022-12-31T11:55:56.720Z,78.70
2022-12-31T11:57:30.236Z,70.60
2022-12-31T11:58:56.325Z,69.07
2022-12-31T12:00:21.053Z,61.03
2022-12-31T12:01:48.375Z,65.45
2022-12-31T12:03:12.289Z,58.70
2022-12-31T12:04:34.031Z,55.05
2022-12-31T12:05:57.797Z,52.13
2022-12-31T12:07:21.528Z,56.10
2022-12-31T12:08:44.598Z,45.60
2022-12-31T12:10:35.991Z,57.15
2022-12-31T12:12:05.325Z,45.70
2022-12-31T12:13:28.812Z,57.40
2022-12-31T12:14:54.140Z,51.90
2022-12-31T12:16:16.295Z,57.90
2022-12-31T12:17:39.354Z,58.78
2022-12-31T12:19:16.735Z,62.25
2022-12-31T12:20:45.261Z,75.22
2022-12-31T12:22:21.036Z,64.80
2022-12-31T12:23:54.614Z,70.78
2022-12-31T12:25:22.760Z,62.15
2022-12-31T12:26:45.619Z,65.32
2022-12-31T12:28:24.313Z,61.75
2022-12-31T12:29:47.442Z,61.08
2022-12-31T12:31:20.836Z,70.85
2022-12-31T12:32:58.947Z,69.25
2022-12-31T12:34:30.764Z,80.05
2022-12-31T12:35:52.670Z,87.07
2022-12-31T12:37:35.506Z,96.10
2022-12-31T12:39:06.070Z,85.38
2022-12-31T12:40:33.655Z,82.93
2022-12-31T12:42:15.910Z,82.07
2022-12-31T12:43:39.071Z,92.00
2022-12-31T12:45:17.825Z,105.07
2022-12-31T12:46:49.192Z,84.63
2022-12-31T12:48:37.084Z,52.08
2022-12-31T12:49:59.776Z,43.60
2022-12-31T12:51:21.223Z,35.92
2022-12-31T12:53:08.688Z,30.38
2022-12-31T12:54:42.427Z,28.77
2022-12-31T12:56:12.554Z,27.63
2022-12-31T12:58:19.056Z,14.88
2022-12-31T13:00:29.805Z,17.65
2022-12-31T13:02:08.542Z,18.58
2022-12-31T13:06:46.799Z,17.30
2022-12-31T13:08:20.358Z,14.95
2022-12-31T13:10:26.645Z,15.52
2022-12-31T13:12:05.420Z,13.57
2022-12-31T13:13:56.467Z,8.70
2022-12-31T13:15:42.383Z,11.23
2022-12-31T13:17:13.382Z,8.55
2022-12-31T13:18:44.173Z,10.23
2022-12-31T13:20:24.103Z,11.57
2022-12-31T13:23:39.422Z,10.32
2022-12-31T13:25:39.821Z,11.77
2022-12-31T13:27:30.623Z,10.05
2022-12-31T13:28:54.553Z,10.65
2022-12-31T13:30:33.526Z,10.85
2022-12-31T13:31:57.819Z,12.35
2022-12-31T13:33:34.308Z,13.13
2022-12-31T13:35:17.858Z,11.43
2022-12-31T13:36:42.462Z,14.38
2022-12-31T13:38:12.349Z,15.27
2022-12-31T13:39:41.618Z,19.40
2022-12-31T13:41:19.183Z,21.38
2022-12-31T13:42:51.895Z,20.60
2022-12-31T13:44:35.768Z,21.70
2022-12-31T13:46:04.752Z,20.20
2022-12-31T13:47:40.840Z,31.42
2022-12-31T13:49:33.739Z,26.80
2022-12-31T13:51:05.993Z,26.98
2022-12-31T13:53:01.221Z,26.30
2022-12-31T13:54:31.560Z,30.63
2022-12-31T13:56:02.145Z,22.23
2022-12-31T13:57:49.431Z,28.70
2022-12-31T13:59:39.624Z,27.65
2022-12-31T14:01:29.408Z,42.05
2022-12-31T14:03:26.319Z,37.08
2022-12-31T14:04:53.196Z,18.48
2022-12-31T14:06:24.759Z,24.83
2022-12-31T14:08:00.482Z,41.33
2022-12-31T14:09:31.855Z,42.47
2022-12-31T14:11:21.715Z,72.18
2022-12-31T14:13:06.361Z,112.22
2022-12-31T14:14:46.202Z,198.13
2022-12-31T14:16:27.545Z,328.80
2022-12-31T14:18:04.251Z,741.90
2022-12-31T14:20:21.166Z,260.38
2022-12-31T14:22:23.295Z,127.38
2022-12-31T14:24:27.592Z,314.92
2022-12-31T14:25:56.113Z,999.90
2022-12-31T14:27:35.123Z,836.65
2022-12-31T14:29:09.695Z,999.90
2022-12-31T14:30:37.148Z,999.90
2022-12-31T14:32:16.905Z,999.90
2022-12-31T14:33:55.896Z,977.67
2022-12-31T14:35:38.742Z,999.90
2022-12-31T14:37:14.395Z,914.45
2022-12-31T14:39:10.120Z,801.03
2022-12-31T14:40:55.718Z,999.90
2022-12-31T14:42:38.871Z,999.90
2022-12-31T14:44:25.583Z,999.90
2022-12-31T14:45:47.073Z,999.90
2022-12-31T14:47:09.145Z,947.67
2022-12-31T14:48:49.447Z,115.15
2022-12-31T14:50:13.473Z,575.70
2022-12-31T14:51:37.344Z,853.97
2022-12-31T14:53:06.311Z,70.00
2022-12-31T14:54:35.329Z,318.42
2022-12-31T14:56:27.698Z,160.57
2022-12-31T14:59:38.711Z,39.78
2022-12-31T15:01:19.335Z,330.00
2022-12-31T15:02:51.396Z,97.72
2022-12-31T15:04:15.875Z,39.90
2022-12-31T15:05:38.496Z,92.93
2022-12-31T15:07:18.626Z,321.48
2022-12-31T15:09:34.742Z,64.82
2022-12-31T15:11:23.840Z,44.75
2022-12-31T15:13:19.113Z,75.15
2022-12-31T15:14:49.663Z,58.55
2022-12-31T15:16:49.567Z,42.72
2022-12-31T15:19:44.716Z,59.13
2022-12-31T15:21:27.577Z,74.78
2022-12-31T15:22:51.104Z,42.00
2022-12-31T15:24:28.191Z,46.70
2022-12-31T15:25:59.177Z,85.15
2022-12-31T15:27:37.911Z,39.55
2022-12-31T15:29:06.106Z,41.97
2022-12-31T15:30:44.127Z,51.15
2022-12-31T15:32:08.127Z,41.50
2022-12-31T15:33:41.815Z,41.60
2022-12-31T15:35:25.936Z,50.45
2022-12-31T15:36:55.069Z,41.25
2022-12-31T15:38:18.849Z,42.60
2022-12-31T15:39:44.503Z,29.08
2022-12-31T15:41:20.401Z,33.78
2022-12-31T15:43:00.247Z,35.90
2022-12-31T15:44:28.534Z,28.50
2022-12-31T15:45:52.392Z,21.15
2022-12-31T15:47:24.719Z,27.42
2022-12-31T15:49:04.958Z,38.42
2022-12-31T15:50:29.371Z,39.08
2022-12-31T15:52:03.608Z,43.00
2022-12-31T15:53:41.690Z,39.45
2022-12-31T15:55:06.468Z,37.60
2022-12-31T15:56:40.921Z,37.53
2022-12-31T15:58:11.207Z,43.38
2022-12-31T15:59:34.013Z,54.80
2022-12-31T16:01:04.569Z,54.33
2022-12-31T16:02:28.089Z,52.45
2022-12-31T16:04:20.853Z,115.93
2022-12-31T16:05:42.696Z,114.40
2022-12-31T16:07:05.866Z,106.97
2022-12-31T16:08:31.779Z,69.78
2022-12-31T16:10:00.245Z,69.63
2022-12-31T16:11:23.483Z,72.60
2022-12-31T16:12:45.652Z,67.75
2022-12-31T16:14:07.708Z,70.90
2022-12-31T16:15:32.919Z,71.35
2022-12-31T16:16:58.178Z,74.50
2022-12-31T16:18:23.000Z,75.03
2022-12-31T16:19:47.190Z,78.75
2022-12-31T16:21:30.098Z,81.90
2022-12-31T16:22:59.093Z,75.35
2022-12-31T16:24:37.446Z,68.65
2022-12-31T16:26:10.104Z,56.90
2022-12-31T16:27:34.579Z,41.28
2022-12-31T16:29:00.230Z,38.40
2022-12-31T16:30:28.104Z,39.03
2022-12-31T16:31:53.251Z,42.30
2022-12-31T16:33:16.004Z,46.80
2022-12-31T16:34:38.641Z,54.53
2022-12-31T16:36:01.699Z,67.10
2022-12-31T16:37:24.204Z,67.47
2022-12-31T16:38:46.101Z,68.85
2022-12-31T16:40:17.514Z,59.90
2022-12-31T16:41:43.584Z,54.35
2022-12-31T16:43:20.402Z,53.38
2022-12-31T16:44:42.593Z,45.70
2022-12-31T16:46:28.609Z,45.55
2022-12-31T16:47:50.343Z,23.27
2022-12-31T16:49:20.769Z,26.55
2022-12-31T16:50:49.482Z,30.95
2022-12-31T16:52:32.236Z,33.37
2022-12-31T16:53:54.562Z,36.30
2022-12-31T16:55:21.869Z,40.63
2022-12-31T16:56:44.816Z,40.25
2022-12-31T16:58:28.273Z,36.92
2022-12-31T16:59:55.797Z,40.92
2022-12-31T17:01:25.695Z,45.28
2022-12-31T17:03:14.147Z,44.08
2022-12-31T17:04:37.760Z,43.95
2022-12-31T17:06:14.776Z,40.03
2022-12-31T17:07:42.371Z,43.08
2022-12-31T17:09:15.076Z,43.08
2022-12-31T17:10:37.361Z,40.42
2022-12-31T17:12:17.650Z,40.60
2022-12-31T17:13:39.673Z,37.88
2022-12-31T17:15:06.394Z,39.78
2022-12-31T17:16:28.630Z,41.55
2022-12-31T17:17:56.389Z,45.40
2022-12-31T17:19:30.116Z,34.15
2022-12-31T17:20:54.433Z,40.35
2022-12-31T17:22:34.250Z,44.55
2022-12-31T17:24:03.714Z,43.25
2022-12-31T17:25:28.783Z,52.60
2022-12-31T17:26:53.026Z,57.90
2022-12-31T17:28:22.963Z,65.45
2022-12-31T17:29:45.025Z,58.35
2022-12-31T17:31:26.513Z,64.03
2022-12-31T17:32:50.177Z,72.97
2022-12-31T17:34:14.737Z,77.90
2022-12-31T17:35:42.951Z,37.67
2022-12-31T17:37:10.463Z,31.67
2022-12-31T17:38:36.020Z,43.33
2022-12-31T17:41:46.456Z,41.63
2022-12-31T17:43:10.765Z,52.85
2022-12-31T17:44:36.042Z,55.75
2022-12-31T17:45:58.193Z,47.17
2022-12-31T17:47:20.084Z,46.38
2022-12-31T17:48:44.015Z,48.30
2022-12-31T17:50:09.989Z,48.83
2022-12-31T17:51:31.802Z,48.00
2022-12-31T17:53:02.943Z,44.33
2022-12-31T17:54:24.668Z,67.65
2022-12-31T17:55:52.114Z,64.88
2022-12-31T17:57:28.019Z,62.63
2022-12-31T17:58:52.701Z,60.80
2022-12-31T18:00:20.647Z,69.70
2022-12-31T18:01:42.647Z,64.47
2022-12-31T18:03:04.778Z,65.10
2022-12-31T18:04:27.197Z,70.05
2022-12-31T18:05:49.210Z,76.95
2022-12-31T18:07:11.465Z,79.57
2022-12-31T18:08:33.432Z,74.45
2022-12-31T18:09:55.143Z,79.47
2022-12-31T18:11:26.157Z,92.35
2022-12-31T18:12:49.257Z,83.47
2022-12-31T18:14:15.538Z,85.28
2022-12-31T18:15:37.436Z,93.43
2022-12-31T18:16:59.063Z,112.97
2022-12-31T18:18:25.943Z,124.25
2022-12-31T18:20:05.145Z,143.13
2022-12-31T18:21:30.179Z,153.30
2022-12-31T18:22:52.529Z,163.40
2022-12-31T18:24:24.265Z,159.07
2022-12-31T18:25:47.702Z,157.90
2022-12-31T18:27:19.945Z,168.25
2022-12-31T18:28:41.640Z,166.68
2022-12-31T18:30:05.785Z,172.18
2022-12-31T18:31:31.041Z,157.00
2022-12-31T18:32:53.786Z,151.52
2022-12-31T18:34:17.046Z,143.10
2022-12-31T18:36:07.662Z,143.07
2022-12-31T18:37:22.567Z,138.23
2022-12-31T18:38:45.020Z,130.25
2022-12-31T18:40:07.414Z,123.97
2022-12-31T18:41:37.831Z,113.03
2022-12-31T18:43:04.739Z,108.72
2022-12-31T18:44:27.321Z,108.38
2022-12-31T18:45:50.370Z,105.50
2022-12-31T18:47:18.276Z,102.13
2022-12-31T18:48:41.555Z,99.38
2022-12-31T18:50:03.153Z,100.72
2022-12-31T18:51:31.777Z,99.28
2022-12-31T18:52:54.032Z,99.13
2022-12-31T18:54:16.494Z,107.13
2022-12-31T18:55:49.792Z,105.72
2022-12-31T18:57:15.662Z,104.18
2022-12-31T18:58:37.530Z,108.55
2022-12-31T19:00:00.714Z,105.57
2022-12-31T19:01:30.064Z,117.50
2022-12-31T19:02:51.934Z,139.82
2022-12-31T19:04:27.045Z,143.07
2022-12-31T19:05:51.354Z,142.77
2022-12-31T19:07:13.523Z,130.85
2022-12-31T19:08:35.124Z,134.23
2022-12-31T19:09:58.636Z,140.07
2022-12-31T19:11:21.563Z,150.82
2022-12-31T19:12:44.471Z,196.85
2022-12-31T19:14:18.701Z,201.70
2022-12-31T19:15:46.328Z,205.77
2022-12-31T19:18:28.804Z,183.88
2022-12-31T19:19:50.684Z,179.93
2022-12-31T19:21:18.551Z,177.98
2022-12-31T19:22:40.321Z,161.10
2022-12-31T19:24:02.144Z,172.15
2022-12-31T19:25:26.786Z,170.15
2022-12-31T19:26:49.484Z,161.57
2022-12-31T19:28:19.728Z,168.25
2022-12-31T19:29:41.544Z,168.77
2022-12-31T19:31:03.471Z,175.38
2022-12-31T19:32:25.380Z,173.30